createdAt,value
2022-10-19T00:00:47.687Z,13.70
2022-10-19T00:03:18.270Z,13.70
2022-10-19T00:05:48.552Z,13.70
2022-10-19T00:08:16.203Z,13.70
2022-10-19T00:10:43.906Z,13.70
2022-10-19T00:13:11.585Z,13.70
2022-10-19T00:15:39.715Z,13.80
2022-10-19T00:18:09.026Z,13.90
2022-10-19T00:20:37.248Z,13.90
2022-10-19T00:23:04.967Z,14.00
2022-10-19T00:25:32.633Z,14.00
2022-10-19T00:28:00.422Z,14.00
2022-10-19T00:30:28.094Z,14.00
2022-10-19T00:32:55.810Z,14.00
2022-10-19T00:35:24.836Z,14.00
2022-10-19T00:37:52.740Z,14.00
2022-10-19T00:40:20.426Z,14.00
2022-10-19T00:42:48.229Z,14.00
2022-10-19T00:45:17.116Z,14.00
2022-10-19T00:47:45.699Z,13.90
2022-10-19T00:50:15.283Z,13.90
2022-10-19T00:52:44.314Z,13.80
2022-10-19T00:55:12.419Z,13.80
2022-10-19T00:57:40.667Z,13.70
2022-10-19T01:00:09.189Z,13.60
2022-10-19T01:02:37.259Z,13.70
2022-10-19T01:05:05.544Z,13.70
2022-10-19T01:07:34.037Z,13.60
2022-10-19T01:10:03.374Z,13.60
2022-10-19T01:12:49.723Z,13.50
2022-10-19T01:15:22.685Z,13.50
2022-10-19T01:17:54.599Z,13.50
2022-10-19T01:20:29.176Z,13.50
2022-10-19T01:23:03.313Z,13.40
2022-10-19T01:25:40.019Z,13.40
2022-10-19T01:28:19.098Z,13.30
2022-10-19T01:30:50.572Z,13.40
2022-10-19T01:33:25.148Z,13.30
2022-10-19T01:35:57.059Z,13.40
2022-10-19T01:38:28.842Z,13.30
2022-10-19T01:40:58.836Z,13.30
2022-10-19T01:43:33.284Z,13.30
2022-10-19T01:46:07.010Z,13.30
2022-10-19T01:48:36.562Z,13.20
2022-10-19T01:51:06.062Z,13.20
2022-10-19T01:53:35.659Z,13.10
2022-10-19T01:56:04.108Z,13.00
2022-10-19T01:58:34.542Z,13.00
2022-10-19T02:01:05.835Z,13.10
2022-10-19T02:03:34.855Z,13.10
2022-10-19T02:06:03.958Z,13.10
2022-10-19T02:08:35.806Z,13.10
2022-10-19T02:11:04.143Z,13.10
2022-10-19T02:13:33.032Z,13.10
2022-10-19T02:16:01.985Z,13.10
2022-10-19T02:18:32.413Z,13.00
2022-10-19T02:21:01.538Z,13.00
2022-10-19T02:23:29.255Z,13.00
2022-10-19T02:25:57.387Z,13.00
2022-10-19T02:30:59.259Z,13.00
2022-10-19T02:33:27.999Z,13.00
2022-10-19T02:35:57.316Z,13.00
2022-10-19T02:38:25.455Z,13.00
2022-10-19T02:40:57.063Z,13.00
2022-10-19T02:43:25.971Z,12.90
2022-10-19T02:45:57.125Z,13.00
2022-10-19T02:48:25.861Z,12.90
2022-10-19T02:50:53.559Z,13.00
2022-10-19T02:53:22.634Z,13.00
2022-10-19T02:55:50.402Z,13.00
2022-10-19T02:58:18.300Z,13.00
2022-10-19T03:00:46.082Z,13.00
2022-10-19T03:03:13.904Z,12.90
2022-10-19T03:05:41.603Z,12.80
2022-10-19T03:08:09.279Z,12.80
2022-10-19T03:10:38.294Z,12.70
2022-10-19T03:13:06.281Z,12.80
2022-10-19T03:15:33.984Z,12.80
2022-10-19T03:18:01.723Z,12.80
2022-10-19T03:20:29.402Z,12.90
2022-10-19T03:22:57.112Z,12.90
2022-10-19T03:25:24.775Z,12.80
2022-10-19T03:27:53.787Z,12.80
2022-10-19T03:30:21.584Z,12.70
2022-10-19T03:32:49.244Z,12.70
2022-10-19T03:35:16.978Z,12.70
2022-10-19T03:37:44.727Z,12.80
2022-10-19T03:40:12.375Z,12.80
2022-10-19T03:42:40.166Z,12.80
2022-10-19T03:45:09.791Z,12.70
2022-10-19T03:47:37.454Z,12.70
2022-10-19T03:50:05.943Z,12.70
2022-10-19T03:52:33.739Z,12.70
2022-10-19T03:55:01.377Z,12.60
2022-10-19T03:57:29.031Z,12.70
2022-10-19T03:59:56.730Z,12.70
2022-10-19T04:02:25.798Z,12.70
2022-10-19T04:04:53.531Z,12.70
2022-10-19T04:07:21.352Z,12.60
2022-10-19T04:09:49.007Z,12.50
2022-10-19T04:12:16.676Z,12.40
2022-10-19T04:14:57.003Z,12.50
2022-10-19T04:17:27.151Z,12.40
2022-10-19T04:19:54.830Z,12.60
2022-10-19T04:22:22.491Z,12.60
2022-10-19T04:24:50.154Z,12.50
2022-10-19T04:27:17.919Z,12.50
2022-10-19T04:29:45.689Z,12.50
2022-10-19T04:32:13.379Z,12.60
2022-10-19T04:34:42.413Z,12.50
2022-10-19T04:37:10.106Z,12.40
2022-10-19T04:39:40.687Z,12.30
2022-10-19T04:42:08.363Z,12.20
2022-10-19T04:44:36.039Z,12.20
2022-10-19T04:47:03.777Z,12.10
2022-10-19T04:49:31.599Z,12.10
2022-10-19T04:52:00.610Z,12.20
2022-10-19T04:54:28.288Z,12.20
2022-10-19T04:56:56.075Z,12.20
2022-10-19T04:59:23.764Z,12.10
2022-10-19T05:01:51.447Z,12.10
2022-10-19T05:04:19.149Z,12.10
2022-10-19T05:06:46.858Z,12.00
2022-10-19T05:09:15.883Z,12.00
2022-10-19T05:11:43.559Z,12.00
2022-10-19T05:14:11.285Z,12.00
2022-10-19T05:16:38.957Z,12.10
2022-10-19T05:19:06.660Z,12.10
2022-10-19T05:21:34.518Z,12.00
2022-10-19T05:24:02.234Z,12.00
2022-10-19T05:26:31.286Z,12.10
2022-10-19T05:29:01.664Z,12.10
2022-10-19T05:31:30.420Z,12.20
2022-10-19T05:33:58.222Z,12.30
2022-10-19T05:36:26.986Z,12.30
2022-10-19T05:38:55.520Z,12.30
2022-10-19T05:41:23.476Z,12.30
2022-10-19T05:43:54.580Z,12.40
2022-10-19T05:46:22.232Z,12.40
2022-10-19T05:48:49.875Z,12.40
2022-10-19T05:51:18.497Z,12.50
2022-10-19T05:53:46.237Z,12.40
2022-10-19T05:56:14.886Z,12.40
2022-10-19T05:58:42.524Z,12.20
2022-10-19T06:01:11.788Z,12.20
2022-10-19T06:03:39.675Z,12.10
2022-10-19T06:06:07.990Z,12.10
2022-10-19T06:08:35.823Z,12.10
2022-10-19T06:11:06.084Z,12.10
2022-10-19T06:13:33.798Z,12.20
2022-10-19T06:16:01.481Z,12.20
2022-10-19T06:18:30.549Z,12.10
2022-10-19T06:21:02.196Z,12.00
2022-10-19T06:23:30.172Z,12.00
2022-10-19T06:25:57.934Z,12.00
2022-10-19T06:28:25.612Z,12.00
2022-10-19T06:30:53.387Z,12.00
2022-10-19T06:33:21.174Z,12.00
2022-10-19T06:35:50.228Z,12.00
2022-10-19T06:38:17.902Z,12.00
2022-10-19T06:40:45.659Z,12.10
2022-10-19T06:43:13.427Z,12.00
2022-10-19T06:45:41.204Z,12.10
2022-10-19T06:48:08.932Z,12.10
2022-10-19T06:50:36.615Z,12.00
2022-10-19T06:53:05.640Z,12.10
2022-10-19T06:55:33.319Z,12.10
2022-10-19T06:58:01.782Z,12.10
2022-10-19T07:00:29.837Z,12.10
2022-10-19T07:02:57.712Z,12.10
2022-10-19T07:05:25.485Z,12.20
2022-10-19T07:07:53.210Z,12.20
2022-10-19T07:10:22.920Z,12.20
2022-10-19T07:12:50.581Z,12.20
2022-10-19T07:15:18.283Z,12.20
2022-10-19T07:17:45.986Z,12.20
2022-10-19T07:20:13.669Z,12.20
2022-10-19T07:22:41.343Z,12.20
2022-10-19T07:25:09.489Z,12.20
2022-10-19T07:27:40.380Z,12.20
2022-10-19T07:30:08.716Z,12.30
2022-10-19T07:32:36.397Z,12.30
2022-10-19T07:35:04.269Z,12.40
2022-10-19T07:37:32.231Z,12.50
2022-10-19T07:40:00.155Z,12.70
2022-10-19T07:42:30.328Z,12.90
2022-10-19T07:44:59.321Z,13.00
2022-10-19T07:47:27.038Z,13.10
2022-10-19T07:49:54.711Z,13.10
2022-10-19T07:52:22.415Z,13.10
2022-10-19T07:54:50.101Z,13.00
2022-10-19T07:57:17.892Z,13.10
2022-10-19T07:59:45.603Z,13.20
2022-10-19T08:02:16.895Z,13.30
2022-10-19T08:05:03.038Z,13.30
2022-10-19T08:07:33.662Z,13.50
2022-10-19T08:10:01.353Z,13.60
2022-10-19T08:12:29.201Z,13.60
2022-10-19T08:14:56.900Z,13.80
2022-10-19T08:17:25.937Z,13.90
2022-10-19T08:19:53.615Z,14.10
2022-10-19T08:22:21.310Z,14.30
2022-10-19T08:24:49.604Z,14.30
2022-10-19T08:27:17.282Z,14.40
2022-10-19T08:29:45.002Z,14.60
2022-10-19T08:32:12.676Z,14.80
2022-10-19T08:34:41.840Z,14.80
2022-10-19T08:37:19.874Z,14.90
2022-10-19T08:39:57.409Z,15.10
2022-10-19T08:42:27.815Z,15.10
2022-10-19T08:45:04.067Z,15.00
2022-10-19T08:47:39.887Z,15.10
2022-10-19T08:50:17.195Z,15.10
2022-10-19T08:52:46.907Z,15.10
2022-10-19T08:55:19.655Z,15.20
2022-10-19T08:57:51.475Z,15.40
2022-10-19T09:00:22.734Z,15.50
2022-10-19T09:02:55.182Z,15.50
2022-10-19T09:05:28.440Z,15.50
2022-10-19T09:07:56.360Z,15.60
2022-10-19T09:10:25.924Z,15.70
2022-10-19T09:12:58.556Z,15.80
2022-10-19T09:15:27.770Z,16.10
2022-10-19T09:17:55.848Z,16.40
2022-10-19T09:20:27.767Z,16.60
2022-10-19T09:23:01.859Z,16.60
2022-10-19T09:25:30.650Z,16.60
2022-10-19T09:30:38.524Z,16.20
2022-10-19T09:33:07.887Z,16.20
2022-10-19T09:35:39.246Z,16.20
2022-10-19T09:38:07.595Z,16.20
2022-10-19T09:40:36.201Z,16.30
2022-10-19T09:43:19.366Z,16.50
2022-10-19T09:45:50.781Z,16.70
2022-10-19T09:48:21.322Z,16.80
2022-10-19T09:50:54.745Z,16.70
2022-10-19T09:53:22.820Z,16.80
2022-10-19T09:55:54.148Z,16.40
2022-10-19T09:58:27.993Z,16.50
2022-10-19T10:00:58.789Z,16.40
2022-10-19T10:03:27.764Z,16.30
2022-10-19T10:05:57.843Z,16.20
2022-10-19T10:08:27.636Z,16.30
2022-10-19T10:10:58.207Z,16.40
2022-10-19T10:13:27.546Z,16.50
2022-10-19T10:15:57.391Z,16.70
2022-10-19T10:18:26.070Z,16.90
2022-10-19T10:20:59.676Z,17.00
2022-10-19T10:23:28.257Z,16.90
2022-10-19T10:25:57.079Z,16.80
2022-10-19T10:28:25.707Z,16.80
2022-10-19T10:30:55.512Z,16.90
2022-10-19T10:33:40.722Z,16.90
2022-10-19T10:36:13.435Z,16.90
2022-10-19T10:38:42.738Z,17.10
2022-10-19T10:41:12.636Z,17.30
2022-10-19T10:46:20.306Z,17.20
2022-10-19T10:48:54.356Z,17.20
2022-10-19T10:51:24.554Z,17.40
2022-10-19T10:53:52.299Z,17.50
2022-10-19T10:56:25.548Z,17.50
2022-10-19T10:58:56.767Z,17.40
2022-10-19T11:01:27.793Z,17.50
2022-10-19T11:03:58.141Z,17.60
2022-10-19T11:06:27.533Z,17.70
2022-10-19T11:09:00.039Z,17.80
2022-10-19T11:11:30.885Z,17.80
2022-10-19T11:14:01.271Z,17.90
2022-10-19T11:16:30.757Z,18.20
2022-10-19T11:19:01.414Z,18.20
2022-10-19T11:21:35.331Z,18.30
2022-10-19T11:24:09.839Z,18.20
2022-10-19T11:26:42.955Z,18.40
2022-10-19T11:29:22.212Z,18.30
2022-10-19T11:31:51.437Z,18.70
2022-10-19T11:34:28.512Z,18.70
2022-10-19T11:37:00.395Z,19.00
2022-10-19T11:39:35.281Z,19.20
2022-10-19T11:42:09.814Z,19.30
2022-10-19T11:44:45.715Z,19.50
2022-10-19T11:47:22.006Z,19.30
2022-10-19T11:49:53.984Z,19.00
2022-10-19T11:52:28.667Z,18.50
2022-10-19T11:55:01.333Z,18.20
2022-10-19T11:57:32.146Z,18.00
2022-10-19T12:00:13.905Z,17.80
2022-10-19T12:02:55.431Z,17.60
2022-10-19T12:05:26.372Z,17.20
2022-10-19T12:08:05.427Z,17.10
2022-10-19T12:10:34.791Z,16.80
2022-10-19T12:13:03.059Z,16.40
2022-10-19T12:15:32.233Z,16.20
2022-10-19T12:18:01.939Z,16.10
2022-10-19T12:20:31.819Z,16.00
2022-10-19T12:23:00.348Z,16.00
2022-10-19T12:25:29.530Z,15.80
2022-10-19T12:27:57.928Z,15.70
2022-10-19T12:30:27.207Z,15.70
2022-10-19T12:33:03.881Z,15.70
2022-10-19T12:35:49.375Z,15.70
2022-10-19T12:38:20.275Z,15.70
2022-10-19T12:40:52.351Z,15.70
2022-10-19T12:43:23.266Z,15.70
2022-10-19T12:45:53.829Z,15.60
2022-10-19T12:48:22.869Z,15.60
2022-10-19T12:51:01.745Z,15.60
2022-10-19T12:53:30.605Z,15.70
2022-10-19T12:56:03.880Z,15.80
2022-10-19T12:58:34.954Z,15.80
2022-10-19T13:01:04.366Z,15.80
2022-10-19T13:03:32.817Z,15.80
2022-10-19T13:06:01.683Z,15.70
2022-10-19T13:08:31.370Z,15.80
2022-10-19T13:11:08.496Z,15.80
2022-10-19T13:13:51.452Z,15.70
2022-10-19T13:16:33.542Z,15.60
2022-10-19T13:19:09.576Z,15.70
2022-10-19T13:21:48.238Z,15.70
2022-10-19T13:24:27.547Z,15.70
2022-10-19T13:27:19.399Z,15.60
2022-10-19T13:29:48.449Z,15.60
2022-10-19T13:32:35.180Z,15.60
2022-10-19T13:35:22.760Z,15.50
2022-10-19T13:38:05.332Z,15.60
2022-10-19T13:40:33.228Z,15.60
2022-10-19T13:43:01.000Z,15.50
2022-10-19T13:45:30.140Z,15.50
2022-10-19T13:48:03.321Z,15.50
2022-10-19T13:50:40.463Z,15.50
2022-10-19T13:53:29.152Z,15.60
2022-10-19T13:56:00.513Z,15.60
2022-10-19T13:58:38.970Z,15.60
2022-10-19T14:01:14.947Z,15.70
2022-10-19T14:03:52.770Z,15.70
2022-10-19T14:06:26.021Z,15.70
2022-10-19T14:09:15.137Z,15.80
2022-10-19T14:11:44.367Z,15.70
2022-10-19T14:14:16.281Z,15.80
2022-10-19T14:16:54.508Z,15.80
2022-10-19T14:19:27.057Z,15.80
2022-10-19T14:21:56.038Z,15.80
2022-10-19T14:24:28.947Z,15.80
2022-10-19T14:26:56.954Z,15.80
2022-10-19T14:29:24.654Z,15.70
2022-10-19T14:31:54.003Z,15.60
2022-10-19T14:34:21.838Z,15.60
2022-10-19T14:36:50.154Z,15.50
2022-10-19T14:39:31.344Z,15.60
2022-10-19T14:42:04.178Z,15.60
2022-10-19T14:44:39.995Z,15.60
2022-10-19T14:47:15.959Z,15.70
2022-10-19T14:49:43.714Z,15.70
2022-10-19T14:52:14.550Z,15.70
2022-10-19T14:54:43.442Z,15.70
2022-10-19T14:57:14.958Z,15.70
2022-10-19T14:59:46.431Z,15.80
2022-10-19T15:02:18.177Z,15.80
2022-10-19T15:04:46.338Z,15.80
2022-10-19T15:07:16.722Z,15.70
2022-10-19T15:09:50.274Z,15.70
2022-10-19T15:12:18.776Z,15.80
2022-10-19T15:14:47.110Z,15.70
2022-10-19T15:17:29.588Z,15.80
2022-10-19T15:19:59.881Z,15.70
2022-10-19T15:22:38.987Z,15.70
2022-10-19T15:25:27.242Z,15.70
2022-10-19T15:27:55.148Z,15.70
2022-10-19T15:30:27.629Z,15.70
2022-10-19T15:32:58.560Z,15.60
2022-10-19T15:35:27.846Z,15.50
2022-10-19T15:38:01.186Z,15.50
2022-10-19T15:40:32.243Z,15.50
2022-10-19T15:43:00.114Z,15.50
2022-10-19T15:45:28.690Z,15.50
2022-10-19T15:48:11.258Z,15.50
2022-10-19T15:50:43.419Z,15.40
2022-10-19T15:53:11.161Z,15.40
2022-10-19T15:55:38.819Z,15.40
2022-10-19T15:58:06.523Z,15.40
2022-10-19T16:00:34.170Z,15.30
2022-10-19T16:03:01.844Z,15.20
2022-10-19T16:05:29.652Z,15.20
2022-10-19T16:07:58.687Z,15.10
2022-10-19T16:10:27.025Z,15.00
2022-10-19T16:12:54.958Z,14.90
2022-10-19T16:15:23.702Z,14.80
2022-10-19T16:17:53.026Z,14.80
2022-10-19T16:20:20.788Z,14.70
2022-10-19T16:22:48.695Z,14.60
2022-10-19T16:25:17.914Z,14.60
2022-10-19T16:27:45.656Z,14.50
2022-10-19T16:30:13.842Z,14.50
2022-10-19T16:35:11.684Z,14.30
2022-10-19T16:37:39.387Z,14.20
2022-10-19T16:40:07.662Z,14.20
2022-10-19T16:42:36.987Z,14.00
2022-10-19T16:45:05.257Z,14.00
2022-10-19T16:47:32.954Z,13.90
2022-10-19T16:50:01.130Z,13.90
2022-10-19T16:52:28.859Z,13.90
2022-10-19T16:54:56.522Z,13.70
2022-10-19T16:57:24.210Z,13.80
2022-10-19T17:02:26.646Z,13.80
2022-10-19T17:04:54.360Z,13.80
2022-10-19T17:07:22.175Z,13.80
2022-10-19T17:09:54.495Z,13.70
2022-10-19T17:12:22.622Z,13.70
2022-10-19T17:14:51.191Z,13.70
2022-10-19T17:17:20.869Z,13.60
2022-10-19T17:19:48.744Z,13.60
2022-10-19T17:22:16.448Z,13.60
2022-10-19T17:24:46.202Z,13.60
2022-10-19T17:27:13.881Z,13.60
2022-10-19T17:29:41.628Z,13.60
2022-10-19T17:32:09.339Z,13.50
2022-10-19T17:34:38.351Z,13.60
2022-10-19T17:37:06.364Z,13.50
2022-10-19T17:39:34.058Z,13.50
2022-10-19T17:42:03.219Z,13.40
2022-10-19T17:44:31.745Z,13.40
2022-10-19T17:47:00.197Z,13.40
2022-10-19T17:49:29.626Z,13.30
2022-10-19T17:51:58.732Z,13.20
2022-10-19T17:54:26.628Z,13.20
2022-10-19T17:56:54.379Z,13.10
2022-10-19T17:59:30.107Z,13.10
2022-10-19T18:02:02.701Z,13.00
2022-10-19T18:04:30.553Z,13.00
2022-10-19T18:06:59.589Z,13.00
2022-10-19T18:09:27.234Z,12.90
2022-10-19T18:11:54.953Z,12.80
2022-10-19T18:14:22.617Z,12.80
2022-10-19T18:16:51.931Z,12.70
2022-10-19T18:19:19.800Z,12.60
2022-10-19T18:21:49.055Z,12.60
2022-10-19T18:24:19.884Z,12.60
2022-10-19T18:26:48.110Z,12.60
2022-10-19T18:29:16.926Z,12.50
2022-10-19T18:31:49.014Z,12.50
2022-10-19T18:34:16.884Z,12.50
2022-10-19T18:36:44.888Z,12.50
2022-10-19T18:39:13.371Z,12.40
2022-10-19T18:41:42.554Z,12.40
2022-10-19T18:44:12.557Z,12.40
2022-10-19T18:46:40.773Z,12.40
2022-10-19T18:49:09.140Z,12.30
2022-10-19T18:51:37.109Z,12.30
2022-10-19T18:54:04.882Z,12.30
2022-10-19T18:56:33.304Z,12.20
2022-10-19T18:59:02.396Z,12.20
2022-10-19T19:01:30.760Z,12.20
2022-10-19T19:04:00.601Z,12.20
2022-10-19T19:06:29.830Z,12.20
2022-10-19T19:08:58.065Z,12.20
2022-10-19T19:11:26.930Z,12.20
2022-10-19T19:13:55.422Z,12.20
2022-10-19T19:16:24.973Z,12.10
2022-10-19T19:18:52.666Z,12.10
2022-10-19T19:21:21.680Z,12.10
2022-10-19T19:23:49.946Z,12.10
2022-10-19T19:26:18.319Z,12.00
2022-10-19T19:28:49.271Z,12.00
2022-10-19T19:31:19.975Z,12.00
2022-10-19T19:33:48.991Z,12.10
2022-10-19T19:36:17.766Z,12.00
2022-10-19T19:38:45.567Z,12.00
2022-10-19T19:41:14.155Z,12.00
2022-10-19T19:43:42.671Z,12.10
2022-10-19T19:46:12.755Z,12.00
2022-10-19T19:48:41.587Z,12.00
2022-10-19T19:51:11.179Z,12.10
2022-10-19T19:53:38.985Z,12.00
2022-10-19T19:56:07.036Z,12.10
2022-10-19T19:58:34.737Z,12.10
2022-10-19T20:01:11.902Z,12.10
2022-10-19T20:03:39.912Z,12.10
2022-10-19T20:06:07.907Z,12.00
2022-10-19T20:08:37.396Z,12.00
2022-10-19T20:11:06.211Z,12.00
2022-10-19T20:13:34.181Z,12.00
2022-10-19T20:16:07.330Z,12.00
2022-10-19T20:18:34.986Z,12.00
2022-10-19T20:21:02.894Z,12.00
2022-10-19T20:23:31.141Z,12.00
2022-10-19T20:26:00.232Z,12.00
2022-10-19T20:28:28.597Z,12.00
2022-10-19T20:31:00.134Z,11.90
2022-10-19T20:33:29.552Z,12.00
2022-10-19T20:35:57.238Z,11.90
2022-10-19T20:38:25.278Z,11.90
2022-10-19T20:40:54.480Z,11.90
2022-10-19T20:43:23.495Z,11.90
2022-10-19T20:45:51.239Z,11.90
2022-10-19T20:48:18.884Z,11.90
2022-10-19T20:50:46.563Z,11.90
2022-10-19T20:53:14.452Z,11.90
2022-10-19T20:55:42.149Z,11.90
2022-10-19T20:58:09.833Z,11.90
2022-10-19T21:00:38.869Z,11.90
2022-10-19T21:03:06.522Z,11.90
2022-10-19T21:05:38.174Z,11.80
2022-10-19T21:10:35.877Z,11.80
2022-10-19T21:13:03.564Z,11.80
2022-10-19T21:15:31.236Z,11.80
2022-10-19T21:18:00.265Z,11.80
2022-10-19T21:20:28.522Z,11.80
2022-10-19T21:22:56.208Z,11.80
2022-10-19T21:25:23.876Z,11.70
2022-10-19T21:27:52.552Z,11.70
2022-10-19T21:30:20.205Z,11.70
2022-10-19T21:32:48.693Z,11.60
2022-10-19T21:35:17.803Z,11.70
2022-10-19T21:37:45.458Z,11.60
2022-10-19T21:40:13.128Z,11.60
2022-10-19T21:42:40.815Z,11.60
2022-10-19T21:45:29.183Z,11.50
2022-10-19T21:47:56.971Z,11.50
2022-10-19T21:50:26.007Z,11.50
2022-10-19T21:52:53.820Z,11.50
2022-10-19T21:55:21.859Z,11.50
2022-10-19T21:57:49.519Z,11.50
2022-10-19T22:00:17.212Z,11.40
2022-10-19T22:02:44.919Z,11.40
2022-10-19T22:05:12.601Z,11.40
2022-10-19T22:07:41.612Z,11.40
2022-10-19T22:10:09.727Z,11.30
2022-10-19T22:12:37.613Z,11.30
2022-10-19T22:15:05.895Z,11.20
2022-10-19T22:17:33.578Z,11.20
2022-10-19T22:20:01.257Z,11.20
2022-10-19T22:22:28.927Z,11.10
2022-10-19T22:24:57.966Z,11.10
2022-10-19T22:27:25.776Z,11.10
2022-10-19T22:29:53.522Z,11.10
2022-10-19T22:32:21.324Z,11.10
2022-10-19T22:34:49.168Z,11.10
2022-10-19T22:37:16.835Z,11.00
2022-10-19T22:39:44.529Z,11.00
2022-10-19T22:42:15.339Z,11.00
2022-10-19T22:44:42.984Z,11.00
2022-10-19T22:47:10.643Z,11.00
2022-10-19T22:49:38.309Z,11.00
2022-10-19T22:52:06.053Z,10.90
2022-10-19T22:54:33.734Z,10.90
2022-10-19T22:57:01.545Z,10.90
2022-10-19T22:59:30.531Z,10.90
2022-10-19T23:01:58.360Z,10.80
2022-10-19T23:04:26.167Z,10.80
2022-10-19T23:06:53.844Z,10.80
2022-10-19T23:09:21.702Z,10.80
2022-10-19T23:11:49.389Z,10.80
2022-10-19T23:14:17.056Z,10.80
2022-10-19T23:16:46.055Z,10.80
2022-10-19T23:19:13.755Z,10.80
2022-10-19T23:21:41.405Z,10.80
2022-10-19T23:24:09.087Z,10.70
2022-10-19T23:26:37.368Z,10.70
2022-10-19T23:29:05.007Z,10.60
2022-10-19T23:31:33.511Z,10.60
2022-10-19T23:34:02.723Z,10.60
2022-10-19T23:36:30.366Z,10.60
2022-10-19T23:38:58.575Z,10.60
2022-10-19T23:41:26.490Z,10.50
2022-10-19T23:43:54.160Z,10.50
2022-10-19T23:46:21.841Z,10.50
2022-10-19T23:48:49.639Z,10.40
2022-10-19T23:51:20.109Z,10.50
2022-10-19T23:53:48.636Z,10.40
2022-10-19T23:56:17.675Z,10.40
2022-10-19T23:58:45.671Z,10.40
